Time;durP1;ratioP1;P1;durP2;ratioP2;P2;SDS_P1;SDS_P2;PMS_P1;PMS_P2;Temp;Humidity;BMP_temperature;BMP_pressure;BME280_temperature;BME280_humidity;BME280_pressure;Samples;Min_cycle;Max_cycle;Signal;HPM_P1;HPM_P2
2021/08/16 00:00:03;;;;;;;8.68;2.92;;;19.40;84.20;;;;;;5030527;28;20242;-84
2021/08/16 00:02:28;;;;;;;9.48;2.67;;;19.40;84.40;;;;;;5044978;28;20025;-84
2021/08/16 00:04:54;;;;;;;11.00;2.75;;;19.40;84.60;;;;;;5036387;28;20028;-84
2021/08/16 00:07:20;;;;;;;10.13;2.90;;;19.40;84.60;;;;;;5048777;28;20060;-84
2021/08/16 00:09:46;;;;;;;11.25;3.15;;;19.40;84.60;;;;;;5042572;28;20062;-84
2021/08/16 00:12:12;;;;;;;12.30;2.63;;;19.30;84.50;;;;;;5040017;28;20352;-83
2021/08/16 00:14:37;;;;;;;11.07;3.08;;;19.30;84.60;;;;;;5044120;28;20033;-84
2021/08/16 00:17:03;;;;;;;9.65;3.55;;;19.30;84.70;;;;;;5047345;28;20033;-84
2021/08/16 00:19:31;;;;;;;10.93;3.53;;;19.20;84.50;;;;;;5036144;28;20417;-84
2021/08/16 00:21:57;;;;;;;16.40;3.38;;;19.20;84.70;;;;;;5040047;28;20030;-84
2021/08/16 00:24:23;;;;;;;11.50;3.78;;;19.10;84.90;;;;;;5048273;28;20128;-84
2021/08/16 00:26:48;;;;;;;10.18;2.92;;;19.10;84.90;;;;;;5007332;28;20108;-84
2021/08/16 00:29:15;;;;;;;11.18;3.33;;;19.10;84.90;;;;;;5050873;28;20116;-84
2021/08/16 00:31:41;;;;;;;10.55;3.08;;;19.10;84.90;;;;;;5053807;28;20476;-84
2021/08/16 00:34:06;;;;;;;13.95;3.75;;;19.10;85.60;;;;;;5051578;28;20051;-84
2021/08/16 00:36:33;;;;;;;13.73;3.72;;;19.00;85.80;;;;;;5019817;28;20021;-84
2021/08/16 00:38:59;;;;;;;13.70;3.60;;;19.00;85.40;;;;;;5049016;28;20463;-84
2021/08/16 00:41:25;;;;;;;15.10;2.90;;;19.00;85.80;;;;;;5046395;28;20029;-84
2021/08/16 00:43:51;;;;;;;11.27;3.30;;;19.00;85.90;;;;;;5027399;28;20405;-84
2021/08/16 00:46:18;;;;;;;12.63;2.80;;;18.90;85.90;;;;;;5035648;28;20024;-84
2021/08/16 00:48:45;;;;;;;13.20;3.80;;;18.90;86.10;;;;;;5053804;28;20454;-84
2021/08/16 00:51:12;;;;;;;12.75;3.70;;;18.90;86.20;;;;;;5038440;28;20077;-84
2021/08/16 00:53:38;;;;;;;14.02;3.20;;;18.90;86.40;;;;;;5023562;28;20557;-84
2021/08/16 00:56:04;;;;;;;14.60;3.53;;;18.80;86.40;;;;;;5035671;28;20025;-84
2021/08/16 00:58:30;;;;;;;13.75;3.60;;;18.80;86.70;;;;;;5035090;28;20114;-83
2021/08/16 01:00:58;;;;;;;16.80;4.57;;;18.80;87.00;;;;;;5051925;28;20017;-84
2021/08/16 01:03:27;;;;;;;14.63;3.58;;;18.70;87.20;;;;;;5049241;28;20017;-84
2021/08/16 01:05:57;;;;;;;12.23;3.38;;;18.80;87.50;;;;;;5018894;28;20033;-84
2021/08/16 01:08:24;;;;;;;15.45;3.60;;;18.70;87.70;;;;;;5032952;28;20026;-84
2021/08/16 01:10:50;;;;;;;10.60;3.42;;;18.70;87.80;;;;;;5051570;28;20106;-84
2021/08/16 01:13:19;;;;;;;12.70;3.20;;;18.70;87.90;;;;;;5053446;28;20062;-84
2021/08/16 01:16:03;;;;;;;12.82;3.35;;;18.70;88.00;;;;;;5021593;28;20116;-84
2021/08/16 01:18:32;;;;;;;14.93;3.00;;;18.60;88.10;;;;;;5039707;28;20128;-84
2021/08/16 01:21:00;;;;;;;15.15;3.85;;;18.60;88.10;;;;;;5051885;28;20482;-85
2021/08/16 01:23:26;;;;;;;15.98;3.65;;;18.60;88.40;;;;;;5041135;28;20025;-84
2021/08/16 01:25:52;;;;;;;12.30;3.13;;;18.60;88.50;;;;;;5048464;28;20513;-85
2021/08/16 01:28:19;;;;;;;9.68;2.72;;;18.60;88.60;;;;;;5052704;28;20029;-84
2021/08/16 01:30:57;;;;;;;15.82;4.15;;;18.60;88.80;;;;;;5051123;28;20783;-84
2021/08/16 01:33:24;;;;;;;11.98;3.63;;;18.60;89.00;;;;;;5042117;28;20013;-84
2021/08/16 01:35:49;;;;;;;12.30;3.13;;;18.60;89.00;;;;;;5049049;28;20025;-84
2021/08/16 01:38:19;;;;;;;10.80;2.88;;;18.60;89.00;;;;;;5051669;28;20059;-84
2021/08/16 01:40:45;;;;;;;17.75;4.00;;;18.50;89.00;;;;;;5044656;28;20029;-84
2021/08/16 01:43:11;;;;;;;15.55;3.60;;;18.50;89.10;;;;;;5026116;28;20033;-83
2021/08/16 01:45:36;;;;;;;15.20;3.38;;;18.60;89.30;;;;;;5047069;28;20039;-84
2021/08/16 01:48:03;;;;;;;19.55;4.30;;;18.50;89.20;;;;;;5040166;28;20029;-84
2021/08/16 01:50:28;;;;;;;17.42;3.53;;;18.50;89.30;;;;;;5031751;28;20056;-84
2021/08/16 01:52:54;;;;;;;18.17;4.55;;;18.50;89.60;;;;;;5044924;28;20072;-84
2021/08/16 01:55:20;;;;;;;14.90;3.63;;;18.40;89.70;;;;;;5029726;28;20447;-84
2021/08/16 01:57:45;;;;;;;17.17;3.70;;;18.40;90.00;;;;;;5043089;28;20032;-84
2021/08/16 02:00:12;;;;;;;14.73;3.17;;;18.40;90.10;;;;;;5034986;28;20402;-84
2021/08/16 02:02:37;;;;;;;12.57;3.20;;;18.40;90.00;;;;;;5035187;28;20029;-84
2021/08/16 02:05:03;;;;;;;18.00;3.78;;;18.40;90.10;;;;;;5019947;28;20499;-84
2021/08/16 02:07:30;;;;;;;18.38;4.18;;;18.40;90.20;;;;;;5032907;28;20029;-84
2021/08/16 02:09:55;;;;;;;13.88;3.30;;;18.40;90.10;;;;;;5031759;28;20224;-83
2021/08/16 02:12:21;;;;;;;14.55;3.90;;;18.40;90.10;;;;;;5045380;28;20053;-83
2021/08/16 02:14:46;;;;;;;11.05;3.08;;;18.40;90.20;;;;;;5026122;28;20118;-84
2021/08/16 02:17:12;;;;;;;12.45;3.55;;;18.40;90.30;;;;;;5037279;28;20486;-83
2021/08/16 02:19:38;;;;;;;16.10;3.65;;;18.40;90.30;;;;;;5043181;28;20471;-83
2021/08/16 02:22:04;;;;;;;19.30;4.10;;;18.40;90.50;;;;;;5015568;28;20480;-84
2021/08/16 02:24:29;;;;;;;13.88;3.58;;;18.40;90.50;;;;;;5044739;28;20116;-84
2021/08/16 02:26:55;;;;;;;15.13;3.72;;;18.30;90.50;;;;;;5044437;28;20036;-84
2021/08/16 02:29:21;;;;;;;14.90;3.53;;;18.30;90.60;;;;;;5017761;28;20103;-84
2021/08/16 02:31:46;;;;;;;15.50;4.07;;;18.30;90.80;;;;;;5051330;28;20025;-84
2021/08/16 02:34:12;;;;;;;11.32;3.10;;;18.30;90.70;;;;;;5040311;28;20481;-84
2021/08/16 02:36:37;;;;;;;14.10;3.85;;;18.30;90.90;;;;;;5048049;28;20029;-84
2021/08/16 02:39:04;;;;;;;16.42;4.03;;;18.30;90.90;;;;;;5049108;28;20493;-84
2021/08/16 02:41:30;;;;;;;13.27;3.78;;;18.30;91.00;;;;;;5041812;28;20025;-85
2021/08/16 02:43:55;;;;;;;19.70;4.93;;;18.20;91.10;;;;;;5054907;28;20405;-84
2021/08/16 02:46:21;;;;;;;22.10;4.20;;;18.20;91.20;;;;;;5035387;28;20034;-84
2021/08/16 02:48:47;;;;;;;14.05;3.53;;;18.20;91.20;;;;;;5038063;28;20060;-83
2021/08/16 02:51:13;;;;;;;15.98;3.92;;;18.20;91.30;;;;;;5054283;28;20094;-85
2021/08/16 02:53:38;;;;;;;11.30;2.92;;;18.20;91.40;;;;;;5030430;28;20035;-85
2021/08/16 02:56:05;;;;;;;13.98;3.25;;;18.20;91.70;;;;;;5049971;28;20013;-84
2021/08/16 02:58:30;;;;;;;14.30;3.60;;;18.20;91.50;;;;;;5050607;28;20049;-84
2021/08/16 03:00:56;;;;;;;14.23;3.42;;;18.10;91.50;;;;;;5018547;28;20408;-84
2021/08/16 03:03:22;;;;;;;10.05;3.00;;;18.20;91.50;;;;;;5034728;28;20032;-83
2021/08/16 03:05:47;;;;;;;13.23;3.25;;;18.10;91.60;;;;;;5036030;28;20029;-83
2021/08/16 03:08:13;;;;;;;12.95;3.45;;;18.20;91.60;;;;;;5050393;28;20108;-84
2021/08/16 03:10:39;;;;;;;12.55;3.58;;;18.20;91.70;;;;;;5055860;28;20071;-84
2021/08/16 03:13:05;;;;;;;11.07;3.30;;;18.20;91.80;;;;;;5040651;28;20017;-84
2021/08/16 03:15:30;;;;;;;14.77;3.50;;;18.20;91.80;;;;;;5036732;28;20106;-84
2021/08/16 03:17:56;;;;;;;16.25;3.20;;;18.10;91.90;;;;;;5042455;28;20056;-85
2021/08/16 03:20:22;;;;;;;12.45;3.10;;;18.10;91.90;;;;;;5032132;28;20025;-84
2021/08/16 03:22:48;;;;;;;13.55;3.53;;;18.10;92.00;;;;;;5054212;28;20045;-85
2021/08/16 03:25:14;;;;;;;12.25;3.72;;;18.20;92.00;;;;;;5039791;28;20028;-84
2021/08/16 03:27:39;;;;;;;17.65;4.93;;;18.20;92.10;;;;;;5037594;28;20029;-84
2021/08/16 03:30:07;;;;;;;12.82;3.10;;;18.20;92.20;;;;;;5054488;28;20035;-84
2021/08/16 03:32:33;;;;;;;14.45;3.45;;;18.20;92.10;;;;;;5035674;28;20378;-84
2021/08/16 03:34:59;;;;;;;15.95;3.40;;;18.20;92.20;;;;;;5046158;28;20489;-84
2021/08/16 03:37:31;;;;;;;12.52;3.38;;;18.20;92.10;;;;;;5036521;28;20038;-84
2021/08/16 03:39:57;;;;;;;11.93;3.42;;;18.20;92.10;;;;;;5035593;28;20029;-84
2021/08/16 03:42:23;;;;;;;9.75;3.20;;;18.20;92.10;;;;;;5018149;28;20040;-84
2021/08/16 03:44:48;;;;;;;12.82;3.35;;;18.20;92.10;;;;;;5025774;28;20075;-84
2021/08/16 03:47:14;;;;;;;17.60;3.88;;;18.10;92.10;;;;;;5041108;28;20105;-84
2021/08/16 03:49:40;;;;;;;12.60;3.65;;;18.20;92.10;;;;;;5053866;28;20119;-84
2021/08/16 03:52:05;;;;;;;13.98;3.78;;;18.20;92.10;;;;;;5049408;28;20156;-84
2021/08/16 03:54:31;;;;;;;14.45;3.72;;;18.10;92.10;;;;;;5036544;28;20458;-84
2021/08/16 03:56:57;;;;;;;15.90;3.90;;;18.20;92.20;;;;;;5040678;28;20474;-84
2021/08/16 03:59:22;;;;;;;9.52;2.97;;;18.20;92.20;;;;;;5020581;28;20029;-84
2021/08/16 04:01:48;;;;;;;14.07;4.30;;;18.10;92.20;;;;;;5053693;28;20049;-84
2021/08/16 04:04:14;;;;;;;13.55;3.70;;;18.20;92.20;;;;;;5053158;28;20025;-84
2021/08/16 04:06:40;;;;;;;13.15;3.80;;;18.20;92.30;;;;;;5050662;28;20025;-84
2021/08/16 04:09:06;;;;;;;12.52;4.05;;;18.10;92.20;;;;;;5058903;28;20025;-84
2021/08/16 04:11:32;;;;;;;20.63;4.65;;;18.10;92.20;;;;;;5053697;28;20049;-84
2021/08/16 04:13:57;;;;;;;14.15;4.25;;;18.10;92.30;;;;;;5020413;28;20026;-84
2021/08/16 04:16:23;;;;;;;12.68;3.88;;;18.10;92.30;;;;;;5053192;28;20534;-84
2021/08/16 04:18:48;;;;;;;16.45;4.40;;;18.10;92.30;;;;;;5036597;28;20379;-84
2021/08/16 04:21:14;;;;;;;13.43;4.15;;;18.00;92.30;;;;;;5054888;28;20044;-84
2021/08/16 04:23:40;;;;;;;17.17;4.40;;;18.00;92.30;;;;;;5033688;28;20380;-84
2021/08/16 04:26:05;;;;;;;13.35;4.35;;;18.10;92.40;;;;;;5005764;28;20036;-84
2021/08/16 04:28:31;;;;;;;11.10;3.47;;;18.10;92.50;;;;;;5035445;28;20022;-84
2021/08/16 04:30:57;;;;;;;13.98;4.43;;;18.10;92.40;;;;;;5033389;28;20025;-84
2021/08/16 04:33:25;;;;;;;12.60;3.60;;;18.10;92.50;;;;;;5016783;28;20079;-85
2021/08/16 04:35:53;;;;;;;14.23;4.07;;;18.10;92.50;;;;;;5039620;28;20078;-84
2021/08/16 04:38:20;;;;;;;13.52;3.97;;;18.10;92.50;;;;;;5054345;28;20029;-85
2021/08/16 04:40:52;;;;;;;13.60;3.97;;;18.10;92.60;;;;;;5052837;28;20020;-84
2021/08/16 04:43:19;;;;;;;14.23;4.50;;;18.00;92.60;;;;;;5052969;28;20091;-84
2021/08/16 04:45:45;;;;;;;13.05;4.10;;;18.00;92.70;;;;;;5050150;28;20083;-84
2021/08/16 04:48:11;;;;;;;12.82;4.65;;;18.00;92.70;;;;;;5041478;28;20013;-84
2021/08/16 04:50:38;;;;;;;16.02;4.75;;;18.00;92.80;;;;;;5060610;23;20049;-86
2021/08/16 04:53:03;;;;;;;17.33;4.65;;;18.00;92.80;;;;;;5038457;28;20024;-87
2021/08/16 04:55:29;;;;;;;13.70;4.53;;;18.00;92.90;;;;;;5037035;28;20090;-87
2021/08/16 04:57:55;;;;;;;16.60;5.15;;;17.90;92.90;;;;;;5021501;28;20029;-87
2021/08/16 05:00:25;;;;;;;14.75;4.95;;;18.00;93.10;;;;;;5056199;28;20029;-87
2021/08/16 05:02:51;;;;;;;12.75;4.28;;;17.90;93.00;;;;;;5023185;28;20036;-87
2021/08/16 05:05:17;;;;;;;16.38;4.72;;;17.90;93.10;;;;;;5038429;28;20059;-87
2021/08/16 05:07:53;;;;;;;13.68;4.47;;;17.90;93.10;;;;;;5022972;28;20394;-87
2021/08/16 05:10:21;;;;;;;15.82;5.25;;;17.90;93.10;;;;;;5041544;28;20032;-86
2021/08/16 05:12:49;;;;;;;15.40;4.97;;;18.00;93.20;;;;;;5026003;28;20544;-86
2021/08/16 05:15:15;;;;;;;18.13;5.82;;;17.90;93.20;;;;;;5061233;28;20033;-87
2021/08/16 05:17:41;;;;;;;10.88;5.20;;;18.00;93.20;;;;;;5057268;28;20032;-86
2021/08/16 05:20:08;;;;;;;16.73;6.18;;;18.00;93.20;;;;;;5036775;28;20021;-87
2021/08/16 05:22:37;;;;;;;13.07;5.47;;;17.90;93.20;;;;;;5020309;28;20033;-87
2021/08/16 05:25:04;;;;;;;16.02;6.20;;;18.00;93.30;;;;;;5054673;28;20048;-86
2021/08/16 05:27:30;;;;;;;13.50;5.75;;;17.90;93.20;;;;;;5037132;28;20470;-87
2021/08/16 05:29:55;;;;;;;14.60;7.28;;;18.00;93.30;;;;;;5036689;28;20022;-87
2021/08/16 05:32:21;;;;;;;17.75;7.45;;;17.90;93.20;;;;;;5019937;28;20086;-87
2021/08/16 05:34:47;;;;;;;14.35;7.93;;;17.90;93.30;;;;;;5019780;28;20029;-87
2021/08/16 05:37:12;;;;;;;18.17;7.35;;;18.00;93.30;;;;;;5036567;28;20025;-87
2021/08/16 05:39:38;;;;;;;17.85;7.63;;;17.90;93.30;;;;;;5020146;28;20078;-87
2021/08/16 05:42:04;;;;;;;16.95;7.85;;;17.90;93.30;;;;;;5037656;28;20021;-86
2021/08/16 05:44:29;;;;;;;17.33;8.63;;;17.90;93.30;;;;;;5036818;28;20054;-87
2021/08/16 05:46:55;;;;;;;17.08;7.75;;;17.90;93.40;;;;;;5020928;28;20067;-87
2021/08/16 05:49:22;;;;;;;17.88;9.10;;;17.90;93.40;;;;;;5036722;28;20033;-86
2021/08/16 05:51:48;;;;;;;24.45;10.38;;;17.90;93.40;;;;;;5020160;28;20075;-87
2021/08/16 05:54:13;;;;;;;15.07;9.05;;;17.90;93.50;;;;;;5054448;28;20037;-87
2021/08/16 05:56:39;;;;;;;19.83;9.57;;;17.90;93.50;;;;;;5020341;28;20025;-87
2021/08/16 05:59:05;;;;;;;16.63;9.18;;;17.90;93.60;;;;;;5019690;28;20029;-86
2021/08/16 06:01:33;;;;;;;19.15;9.85;;;17.90;93.60;;;;;;5020191;28;20090;-87
2021/08/16 06:04:00;;;;;;;22.02;10.27;;;17.90;93.60;;;;;;5020152;28;20056;-87
2021/08/16 06:06:25;;;;;;;22.35;10.40;;;17.90;93.60;;;;;;5035831;28;20040;-87
2021/08/16 06:08:51;;;;;;;17.90;10.32;;;17.90;93.70;;;;;;5023835;28;20150;-87
2021/08/16 06:11:17;;;;;;;14.30;9.20;;;17.90;93.70;;;;;;5040208;28;20071;-87
2021/08/16 06:13:42;;;;;;;24.13;11.05;;;17.90;93.70;;;;;;5023373;28;20025;-88
2021/08/16 06:16:08;;;;;;;16.38;9.90;;;18.00;93.70;;;;;;5023620;28;20540;-87
2021/08/16 06:18:33;;;;;;;20.58;10.23;;;17.90;93.80;;;;;;5058098;28;20029;-87
2021/08/16 06:20:59;;;;;;;20.38;10.38;;;18.00;93.70;;;;;;5023589;28;20028;-87
2021/08/16 06:23:26;;;;;;;20.58;10.90;;;18.00;93.80;;;;;;5039825;28;20463;-87
2021/08/16 06:25:52;;;;;;;17.30;10.55;;;18.00;93.70;;;;;;5023258;28;20029;-87
2021/08/16 06:28:18;;;;;;;15.70;10.13;;;18.00;93.70;;;;;;5049694;28;20032;-87
2021/08/16 06:30:43;;;;;;;20.40;11.18;;;18.00;93.80;;;;;;5004697;28;20037;-87
2021/08/16 06:33:09;;;;;;;17.65;10.20;;;18.00;93.80;;;;;;5010728;28;20383;-87
2021/08/16 06:35:36;;;;;;;21.98;11.35;;;18.10;93.80;;;;;;5038273;28;20033;-87
2021/08/16 06:38:02;;;;;;;16.70;9.90;;;18.10;93.90;;;;;;5038359;28;20021;-87
2021/08/16 06:40:28;;;;;;;17.00;10.77;;;18.10;94.00;;;;;;5056526;28;20017;-82
2021/08/16 06:42:54;;;;;;;17.25;10.43;;;18.10;94.10;;;;;;5038701;28;20044;-82
2021/08/16 06:45:20;;;;;;;17.88;10.90;;;18.10;94.40;;;;;;5034534;28;20025;-86
2021/08/16 06:47:45;;;;;;;17.70;11.30;;;18.10;94.60;;;;;;5039275;28;20039;-87
2021/08/16 06:50:11;;;;;;;17.90;10.90;;;18.10;94.80;;;;;;5057695;28;20466;-87
2021/08/16 06:52:37;;;;;;;17.50;10.90;;;18.00;95.00;;;;;;5022806;28;20083;-87
2021/08/16 06:55:03;;;;;;;18.92;12.48;;;18.00;95.10;;;;;;5039145;28;20496;-88
2021/08/16 06:57:29;;;;;;;16.55;12.30;;;18.00;95.30;;;;;;5039259;28;20021;-87
2021/08/16 06:59:55;;;;;;;18.13;13.05;;;17.90;95.70;;;;;;5039300;28;20436;-87
2021/08/16 07:02:21;;;;;;;19.33;11.77;;;17.90;95.70;;;;;;5022406;28;20025;-87
2021/08/16 07:04:47;;;;;;;17.23;12.00;;;17.90;95.80;;;;;;5022424;28;20035;-87
2021/08/16 07:07:12;;;;;;;20.65;13.07;;;17.80;96.00;;;;;;5022969;28;20037;-87
2021/08/16 07:09:38;;;;;;;20.08;12.05;;;17.70;96.30;;;;;;5022343;28;20021;-87
2021/08/16 07:12:04;;;;;;;18.08;12.10;;;17.60;96.50;;;;;;5021997;28;20382;-86
2021/08/16 07:14:30;;;;;;;16.35;11.48;;;17.60;96.70;;;;;;5022207;28;20025;-87
2021/08/16 07:16:56;;;;;;;16.88;11.45;;;17.60;96.60;;;;;;5022161;28;20032;-87
2021/08/16 07:19:21;;;;;;;18.35;11.63;;;17.60;96.80;;;;;;5012232;28;20057;-86
2021/08/16 07:21:47;;;;;;;14.50;10.93;;;17.50;96.90;;;;;;5002246;28;20025;-87
2021/08/16 07:24:13;;;;;;;13.95;10.93;;;17.50;97.20;;;;;;5018501;28;20061;-86
2021/08/16 07:26:39;;;;;;;14.35;11.45;;;17.50;97.30;;;;;;5002131;28;20022;-86
2021/08/16 07:29:05;;;;;;;15.40;13.48;;;17.50;97.50;;;;;;5022757;28;20017;-86
2021/08/16 07:31:31;;;;;;;14.98;12.25;;;17.60;97.60;;;;;;5021526;28;20378;-86
2021/08/16 07:33:57;;;;;;;13.63;12.15;;;17.60;97.80;;;;;;5018261;28;20030;-86
2021/08/16 07:36:22;;;;;;;18.38;14.25;;;17.60;98.10;;;;;;5038229;28;20068;-85
2021/08/16 07:38:48;;;;;;;14.88;13.02;;;17.50;98.20;;;;;;5001658;28;20024;-85
2021/08/16 07:41:14;;;;;;;15.57;13.15;;;17.50;98.30;;;;;;5015630;28;20467;-85
2021/08/16 07:43:40;;;;;;;13.63;11.60;;;17.40;98.50;;;;;;5017303;28;20025;-85
2021/08/16 07:46:06;;;;;;;10.90;8.30;;;17.50;98.80;;;;;;5036773;28;20086;-85
2021/08/16 07:48:31;;;;;;;7.72;6.05;;;17.40;98.90;;;;;;5020897;28;20120;-85
2021/08/16 07:54:57;;;;;;;5.93;4.82;;;17.40;98.90;;;;;;5015887;28;20033;-85
2021/08/16 07:57:22;;;;;;;5.22;3.60;;;17.40;98.90;;;;;;5030997;28;20030;-85
2021/08/16 07:59:48;;;;;;;7.82;3.40;;;17.40;99.10;;;;;;5005977;28;20032;-85
2021/08/16 08:02:13;;;;;;;4.97;3.40;;;17.50;99.20;;;;;;5017733;28;20083;-86
2021/08/16 08:04:39;;;;;;;4.80;3.28;;;17.50;99.20;;;;;;5017521;28;20430;-85
2021/08/16 08:07:05;;;;;;;5.95;2.88;;;17.50;99.20;;;;;;5017549;28;20028;-85
2021/08/16 08:09:31;;;;;;;6.63;3.10;;;17.60;99.30;;;;;;5034791;28;20026;-85
2021/08/16 08:11:58;;;;;;;6.57;3.08;;;17.50;99.30;;;;;;4998615;28;20023;-86
2021/08/16 08:14:24;;;;;;;8.35;3.42;;;17.50;99.40;;;;;;4997827;28;20469;-85
2021/08/16 08:16:50;;;;;;;8.52;3.50;;;17.50;99.30;;;;;;5014071;28;20022;-85
2021/08/16 08:19:15;;;;;;;9.80;3.60;;;17.50;99.40;;;;;;4997568;28;20128;-84
2021/08/16 08:21:41;;;;;;;6.25;3.40;;;17.50;99.20;;;;;;4997754;28;20033;-85
2021/08/16 08:24:07;;;;;;;5.78;2.72;;;17.50;99.30;;;;;;5019679;28;20041;-86
2021/08/16 08:26:33;;;;;;;5.18;2.55;;;17.50;99.20;;;;;;4999320;28;20069;-86
2021/08/16 08:28:59;;;;;;;5.45;3.03;;;17.50;99.20;;;;;;4997650;28;20125;-85
2021/08/16 08:31:26;;;;;;;5.30;2.60;;;17.50;99.30;;;;;;5030827;28;20021;-84
2021/08/16 08:33:53;;;;;;;5.60;2.90;;;17.50;99.20;;;;;;5033539;28;20160;-84
2021/08/16 08:36:19;;;;;;;5.80;2.92;;;17.50;99.40;;;;;;5023977;28;20101;-83
2021/08/16 08:38:44;;;;;;;6.80;3.13;;;17.40;99.30;;;;;;4981823;28;20125;-83
2021/08/16 08:41:15;;;;;;;7.13;3.65;;;17.40;99.20;;;;;;5033111;28;20029;-83
2021/08/16 08:43:43;;;;;;;6.28;3.50;;;17.40;99.20;;;;;;5020035;28;20105;-84
2021/08/16 08:46:09;;;;;;;8.27;3.30;;;17.40;99.00;;;;;;4997294;28;20492;-84
2021/08/16 08:48:36;;;;;;;6.00;3.35;;;17.30;99.00;;;;;;4995499;28;20034;-84
2021/08/16 08:51:02;;;;;;;7.30;3.60;;;17.30;99.10;;;;;;5030063;28;20033;-84
2021/08/16 08:53:28;;;;;;;6.10;3.60;;;17.30;99.10;;;;;;5023410;28;20527;-85
2021/08/16 08:55:54;;;;;;;8.80;3.63;;;17.30;99.10;;;;;;4999005;28;20038;-85
2021/08/16 08:58:20;;;;;;;6.72;3.30;;;17.20;99.20;;;;;;5016749;28;20382;-85
2021/08/16 09:00:46;;;;;;;7.63;4.15;;;17.20;99.20;;;;;;5000389;28;20037;-84
2021/08/16 09:03:12;;;;;;;8.93;4.25;;;17.30;99.40;;;;;;5000581;28;20027;-84
2021/08/16 09:05:50;;;;;;;8.68;4.03;;;17.30;99.40;;;;;;5032870;28;20112;-85
2021/08/16 09:08:33;;;;;;;8.18;4.10;;;17.30;99.50;;;;;;5022068;28;20018;-85
2021/08/16 09:11:13;;;;;;;8.32;4.15;;;17.30;99.30;;;;;;4994104;28;20026;-86
2021/08/16 09:14:00;;;;;;;9.10;4.30;;;17.20;99.30;;;;;;5014190;28;20033;-86
2021/08/16 09:16:31;;;;;;;9.00;4.07;;;17.20;99.30;;;;;;5013222;28;20494;-85
2021/08/16 09:18:57;;;;;;;6.85;4.05;;;17.20;99.60;;;;;;5013512;28;20590;-85
2021/08/16 09:21:35;;;;;;;7.10;3.72;;;17.20;99.70;;;;;;5015780;28;20480;-86
2021/08/16 09:24:01;;;;;;;8.02;4.18;;;17.20;99.80;;;;;;5017548;28;20505;-85
2021/08/16 09:26:32;;;;;;;10.73;4.85;;;17.20;99.70;;;;;;5016515;28;20068;-85
2021/08/16 09:29:11;;;;;;;10.07;4.47;;;17.30;99.90;;;;;;5033527;28;20030;-86
2021/08/16 09:31:37;;;;;;;10.88;5.03;;;17.30;99.90;;;;;;5032585;28;20029;-85
2021/08/16 09:34:02;;;;;;;13.80;5.00;;;17.20;99.90;;;;;;5016353;28;20036;-86
2021/08/16 09:36:39;;;;;;;18.75;5.28;;;17.20;99.90;;;;;;5012869;28;20045;-84
2021/08/16 09:39:20;;;;;;;7.10;3.97;;;17.20;99.70;;;;;;5014029;28;20145;-85
2021/08/16 09:41:46;;;;;;;8.50;4.15;;;17.20;99.90;;;;;;5012153;28;20033;-86
2021/08/16 09:44:14;;;;;;;8.15;3.95;;;17.20;99.80;;;;;;4996248;28;20469;-86
2021/08/16 09:46:40;;;;;;;9.10;4.25;;;17.20;99.80;;;;;;4996305;28;20018;-86
2021/08/16 09:49:07;;;;;;;7.63;4.28;;;17.20;99.80;;;;;;4996176;28;20026;-85
2021/08/16 09:51:35;;;;;;;8.73;4.25;;;17.20;99.70;;;;;;4996094;28;20046;-85
2021/08/16 09:54:02;;;;;;;11.55;4.10;;;17.20;99.60;;;;;;4996361;28;20033;-85
2021/08/16 09:56:30;;;;;;;7.30;4.07;;;17.20;99.60;;;;;;5012503;28;20029;-85
2021/08/16 09:58:56;;;;;;;9.43;4.28;;;17.20;99.90;;;;;;5012474;28;20037;-85
2021/08/16 10:01:22;;;;;;;7.90;4.20;;;17.20;99.40;;;;;;4996374;28;20026;-85
2021/08/16 10:03:48;;;;;;;10.90;4.35;;;17.10;99.50;;;;;;4996065;28;20014;-85
2021/08/16 10:06:16;;;;;;;13.93;5.55;;;17.10;99.60;;;;;;5012497;28;20037;-85
2021/08/16 10:09:00;;;;;;;12.55;5.38;;;17.10;99.50;;;;;;4996239;28;20024;-85
2021/08/16 10:11:26;;;;;;;10.57;4.65;;;17.10;99.60;;;;;;4996091;28;20026;-85
2021/08/16 10:13:54;;;;;;;12.55;5.05;;;17.20;99.60;;;;;;4996034;28;20026;-85
2021/08/16 10:16:24;;;;;;;10.82;5.10;;;17.20;99.70;;;;;;5012386;28;20060;-84
2021/08/16 10:18:53;;;;;;;9.13;5.03;;;17.20;99.90;;;;;;5023085;28;20022;-86
2021/08/16 10:21:22;;;;;;;11.50;4.97;;;17.20;99.80;;;;;;5048639;28;20068;-85
2021/08/16 10:23:50;;;;;;;11.20;5.38;;;17.20;99.70;;;;;;5032357;28;20029;-85
2021/08/16 10:26:28;;;;;;;10.38;5.55;;;17.20;99.90;;;;;;5048825;28;20022;-85
2021/08/16 10:28:56;;;;;;;13.15;6.38;;;17.20;99.90;;;;;;5013642;28;20109;-85
2021/08/16 10:31:31;;;;;;;13.02;6.10;;;17.20;99.90;;;;;;5029777;28;20022;-85
2021/08/16 10:33:57;;;;;;;12.98;6.90;;;17.20;99.90;;;;;;5032065;28;20105;-86
2021/08/16 10:36:24;;;;;;;14.48;6.43;;;17.30;99.90;;;;;;5032383;28;20136;-84
2021/08/16 10:38:56;;;;;;;12.20;6.53;;;17.40;99.90;;;;;;5015727;28;20475;-84
2021/08/16 10:41:27;;;;;;;13.23;6.03;;;17.50;99.90;;;;;;5032159;28;20479;-84
2021/08/16 10:43:53;;;;;;;12.13;5.80;;;17.50;99.90;;;;;;5031890;28;20022;-84
2021/08/16 10:46:23;;;;;;;13.35;6.10;;;17.60;99.90;;;;;;5032401;28;20013;-85
2021/08/16 10:49:03;;;;;;;13.55;7.35;;;17.60;99.90;;;;;;5031758;28;20029;-85
2021/08/16 10:51:39;;;;;;;15.07;6.65;;;17.70;99.90;;;;;;5060020;23;20048;-85
2021/08/16 10:54:05;;;;;;;15.70;6.55;;;17.70;99.90;;;;;;5089836;28;20024;-85
2021/08/16 10:56:30;;;;;;;13.27;6.20;;;17.70;99.90;;;;;;5075997;28;20020;-86
2021/08/16 10:58:59;;;;;;;12.55;5.85;;;17.70;99.90;;;;;;5075696;28;20386;-85
2021/08/16 11:01:34;;;;;;;11.35;6.53;;;17.70;99.90;;;;;;5076658;28;20063;-84
2021/08/16 11:04:02;;;;;;;13.63;6.40;;;17.70;99.90;;;;;;5092997;28;20378;-86
2021/08/16 11:06:28;;;;;;;14.25;6.30;;;17.70;99.90;;;;;;5093053;28;20025;-85
2021/08/16 11:09:01;;;;;;;14.57;6.22;;;17.70;99.80;;;;;;5075849;28;20117;-84
2021/08/16 11:11:29;;;;;;;10.60;5.90;;;17.80;99.90;;;;;;5075352;28;20017;-85
2021/08/16 11:14:10;;;;;;;8.98;5.20;;;17.80;99.90;;;;;;5092029;28;20028;-85
2021/08/16 11:16:49;;;;;;;11.77;6.00;;;17.90;99.90;;;;;;5092015;28;20017;-86
2021/08/16 11:19:15;;;;;;;9.70;4.75;;;17.90;99.90;;;;;;5091722;28;20270;-85
2021/08/16 11:21:56;;;;;;;11.52;4.65;;;17.90;99.90;;;;;;5076280;28;20462;-86
2021/08/16 11:24:34;;;;;;;12.48;5.10;;;18.00;99.40;;;;;;5091719;28;20058;-86
2021/08/16 11:27:01;;;;;;;7.13;4.13;;;18.00;98.30;;;;;;5092700;28;20040;-85
2021/08/16 11:29:28;;;;;;;12.00;5.57;;;18.00;98.10;;;;;;5092060;28;20024;-85
2021/08/16 11:31:59;;;;;;;8.10;3.92;;;18.00;98.50;;;;;;5075058;28;20028;-85
2021/08/16 11:34:29;;;;;;;9.55;4.07;;;17.90;98.60;;;;;;5075485;28;20037;-85
2021/08/16 11:36:56;;;;;;;8.43;3.83;;;18.00;98.60;;;;;;5092016;28;20359;-85
2021/08/16 11:39:30;;;;;;;5.90;3.45;;;18.00;98.50;;;;;;5091957;28;20028;-85
2021/08/16 11:42:01;;;;;;;7.07;3.38;;;18.00;98.40;;;;;;5074708;28;20036;-86
2021/08/16 11:44:28;;;;;;;6.57;3.65;;;18.00;98.30;;;;;;5091701;28;20177;-85
2021/08/16 11:46:56;;;;;;;7.80;3.65;;;18.00;98.20;;;;;;5074945;28;20029;-85
2021/08/16 11:49:25;;;;;;;6.40;3.28;;;18.00;98.20;;;;;;5074836;28;20025;-85
2021/08/16 11:51:52;;;;;;;7.60;3.40;;;18.00;98.20;;;;;;5090981;28;20052;-85
2021/08/16 11:54:30;;;;;;;6.78;3.22;;;18.10;98.40;;;;;;5074505;28;20437;-85
2021/08/16 11:56:57;;;;;;;7.28;3.08;;;18.10;98.50;;;;;;5074118;28;20044;-85
2021/08/16 11:59:24;;;;;;;7.53;3.70;;;18.10;98.50;;;;;;5074146;28;20056;-85
2021/08/16 12:01:51;;;;;;;8.43;4.10;;;18.20;98.70;;;;;;5074047;28;20032;-84
2021/08/16 12:04:18;;;;;;;9.77;3.95;;;18.20;98.60;;;;;;5091002;28;20017;-85
2021/08/16 12:06:48;;;;;;;6.18;3.58;;;18.20;98.50;;;;;;5073769;28;20031;-85
2021/08/16 12:09:16;;;;;;;7.90;3.50;;;18.30;98.50;;;;;;5090772;28;20062;-85
2021/08/16 12:11:42;;;;;;;8.57;3.50;;;18.30;98.40;;;;;;5090734;28;20036;-84
2021/08/16 12:14:08;;;;;;;7.95;4.13;;;18.30;98.30;;;;;;5074014;28;20043;-85
2021/08/16 12:16:39;;;;;;;9.18;3.63;;;18.30;98.10;;;;;;5074008;28;20503;-85
2021/08/16 12:19:08;;;;;;;8.85;3.83;;;18.30;97.60;;;;;;5073827;28;20033;-84
2021/08/16 12:21:33;;;;;;;8.45;3.50;;;18.30;96.90;;;;;;5073712;28;20025;-85
2021/08/16 12:24:04;;;;;;;10.95;3.55;;;18.20;97.20;;;;;;5073614;28;20028;-85
2021/08/16 12:26:31;;;;;;;;;;;18.10;97.00;;;;;;5090962;28;20023;-84
2021/08/16 12:28:57;;;;;;;9.57;3.00;;;18.10;96.00;;;;;;5075143;28;19928;-85
2021/08/16 12:31:31;;;;;;;8.90;3.17;;;18.00;96.90;;;;;;5090401;28;20462;-85
2021/08/16 12:34:05;;;;;;;8.00;3.13;;;18.00;96.80;;;;;;5073346;28;20469;-86
2021/08/16 12:36:36;;;;;;;9.48;3.53;;;17.90;96.90;;;;;;5073479;28;20028;-85
2021/08/16 12:39:10;;;;;;;10.07;3.53;;;17.80;97.10;;;;;;5090255;28;20021;-85
2021/08/16 12:41:35;;;;;;;7.40;3.00;;;17.80;97.30;;;;;;5090193;28;20125;-85